sensor_id;sensor_type;location;lat;lon;timestamp;temperature;humidity
6964;DHT22;3522;50.856;7.278;2023-03-01T00:00:37;0.30;99.90
6964;DHT22;3522;50.856;7.278;2023-03-01T00:03:04;0.20;99.90
6964;DHT22;3522;50.856;7.278;2023-03-01T00:05:31;0.30;99.90
6964;DHT22;3522;50.856;7.278;2023-03-01T00:07:59;0.20;99.90
6964;DHT22;3522;50.856;7.278;2023-03-01T00:10:25;0.20;99.90
6964;DHT22;3522;50.856;7.278;2023-03-01T00:12:52;0.10;99.90
6964;DHT22;3522;50.856;7.278;2023-03-01T00:15:18;0.10;99.90
6964;DHT22;3522;50.856;7.278;2023-03-01T00:17:45;0.10;99.90
6964;DHT22;3522;50.856;7.278;2023-03-01T00:20:11;0.10;99.90
6964;DHT22;3522;50.856;7.278;2023-03-01T00:22:38;0.20;99.90
6964;DHT22;3522;50.856;7.278;2023-03-01T00:25:06;0.10;99.90
6964;DHT22;3522;50.856;7.278;2023-03-01T00:27:33;0.10;99.90
6964;DHT22;3522;50.856;7.278;2023-03-01T00:29:59;0.00;99.90
6964;DHT22;3522;50.856;7.278;2023-03-01T00:32:26;0.00;99.90
6964;DHT22;3522;50.856;7.278;2023-03-01T00:34:52;0.00;99.90
6964;DHT22;3522;50.856;7.278;2023-03-01T00:37:20;-0.10;99.90
6964;DHT22;3522;50.856;7.278;2023-03-01T00:39:46;0.00;99.90
6964;DHT22;3522;50.856;7.278;2023-03-01T00:42:14;0.00;99.90
6964;DHT22;3522;50.856;7.278;2023-03-01T00:44:41;-0.10;99.90
6964;DHT22;3522;50.856;7.278;2023-03-01T00:47:08;-0.10;99.90
6964;DHT22;3522;50.856;7.278;2023-03-01T00:49:34;0.00;99.90
6964;DHT22;3522;50.856;7.278;2023-03-01T00:52:01;0.00;99.90
6964;DHT22;3522;50.856;7.278;2023-03-01T00:54:28;0.00;99.90
6964;DHT22;3522;50.856;7.278;2023-03-01T00:56:54;0.00;99.90
6964;DHT22;3522;50.856;7.278;2023-03-01T00:59:22;0.00;99.90
6964;DHT22;3522;50.856;7.278;2023-03-01T01:01:48;-0.10;99.90
6964;DHT22;3522;50.856;7.278;2023-03-01T01:04:15;-0.10;99.90
6964;DHT22;3522;50.856;7.278;2023-03-01T01:06:43;-0.10;99.90
6964;DHT22;3522;50.856;7.278;2023-03-01T01:09:10;-0.10;99.90
6964;DHT22;3522;50.856;7.278;2023-03-01T01:11:42;-0.20;99.90
6964;DHT22;3522;50.856;7.278;2023-03-01T01:14:09;-0.20;99.90
6964;DHT22;3522;50.856;7.278;2023-03-01T01:16:37;-0.20;99.90
6964;DHT22;3522;50.856;7.278;2023-03-01T01:19:04;-0.20;99.90
6964;DHT22;3522;50.856;7.278;2023-03-01T01:21:30;-0.20;99.90
6964;DHT22;3522;50.856;7.278;2023-03-01T01:23:57;-0.20;99.90
6964;DHT22;3522;50.856;7.278;2023-03-01T01:26:25;-0.20;99.90
6964;DHT22;3522;50.856;7.278;2023-03-01T01:28:52;-0.20;99.90
6964;DHT22;3522;50.856;7.278;2023-03-01T01:31:19;-0.20;99.90
6964;DHT22;3522;50.856;7.278;2023-03-01T01:33:50;-0.30;99.90
6964;DHT22;3522;50.856;7.278;2023-03-01T01:36:16;-0.40;99.90
6964;DHT22;3522;50.856;7.278;2023-03-01T01:38:43;-0.60;99.90
6964;DHT22;3522;50.856;7.278;2023-03-01T01:41:10;-0.70;99.90
6964;DHT22;3522;50.856;7.278;2023-03-01T01:43:38;-0.80;99.90
6964;DHT22;3522;50.856;7.278;2023-03-01T01:46:06;-0.80;99.90
6964;DHT22;3522;50.856;7.278;2023-03-01T01:48:39;-0.80;99.90
6964;DHT22;3522;50.856;7.278;2023-03-01T01:51:09;-0.70;99.90
6964;DHT22;3522;50.856;7.278;2023-03-01T01:53:36;-0.70;99.90
6964;DHT22;3522;50.856;7.278;2023-03-01T01:56:04;-0.70;99.90
6964;DHT22;3522;50.856;7.278;2023-03-01T01:58:32;-0.60;99.90
6964;DHT22;3522;50.856;7.278;2023-03-01T02:00:59;-0.60;99.90
6964;DHT22;3522;50.856;7.278;2023-03-01T02:03:26;-0.60;99.90
6964;DHT22;3522;50.856;7.278;2023-03-01T02:05:57;-0.60;99.90
6964;DHT22;3522;50.856;7.278;2023-03-01T02:08:26;-0.50;99.90
6964;DHT22;3522;50.856;7.278;2023-03-01T02:10:54;-0.50;99.90
6964;DHT22;3522;50.856;7.278;2023-03-01T02:13:21;-0.50;99.90
6964;DHT22;3522;50.856;7.278;2023-03-01T02:15:48;-0.50;99.90
6964;DHT22;3522;50.856;7.278;2023-03-01T02:18:16;-0.50;99.90
6964;DHT22;3522;50.856;7.278;2023-03-01T02:20:44;-0.50;99.90
6964;DHT22;3522;50.856;7.278;2023-03-01T02:23:14;-0.60;99.90
6964;DHT22;3522;50.856;7.278;2023-03-01T02:25:44;-0.60;99.90
6964;DHT22;3522;50.856;7.278;2023-03-01T02:28:24;-0.60;99.90
6964;DHT22;3522;50.856;7.278;2023-03-01T02:30:51;-0.60;99.90
6964;DHT22;3522;50.856;7.278;2023-03-01T02:33:37;-0.60;99.90
6964;DHT22;3522;50.856;7.278;2023-03-01T02:36:05;-0.60;99.90
6964;DHT22;3522;50.856;7.278;2023-03-01T02:38:32;-0.60;99.90
6964;DHT22;3522;50.856;7.278;2023-03-01T02:40:59;-0.60;99.90
6964;DHT22;3522;50.856;7.278;2023-03-01T02:43:29;-0.60;99.90
6964;DHT22;3522;50.856;7.278;2023-03-01T02:45:57;-0.60;99.90
6964;DHT22;3522;50.856;7.278;2023-03-01T02:48:24;-0.70;99.90
6964;DHT22;3522;50.856;7.278;2023-03-01T02:50:52;-0.70;99.90
6964;DHT22;3522;50.856;7.278;2023-03-01T02:53:23;-0.70;99.90
6964;DHT22;3522;50.856;7.278;2023-03-01T02:55:54;-0.80;99.90
6964;DHT22;3522;50.856;7.278;2023-03-01T02:58:20;-0.70;99.90
6964;DHT22;3522;50.856;7.278;2023-03-01T03:00:48;-0.80;99.90
6964;DHT22;3522;50.856;7.278;2023-03-01T03:03:15;-0.80;99.90
6964;DHT22;3522;50.856;7.278;2023-03-01T03:05:43;-0.90;99.90
6964;DHT22;3522;50.856;7.278;2023-03-01T03:08:09;-0.90;99.90
6964;DHT22;3522;50.856;7.278;2023-03-01T03:10:37;-0.90;99.90
6964;DHT22;3522;50.856;7.278;2023-03-01T03:13:05;-0.90;99.90
6964;DHT22;3522;50.856;7.278;2023-03-01T03:15:32;-0.90;99.90
6964;DHT22;3522;50.856;7.278;2023-03-01T03:18:02;-0.90;99.90
6964;DHT22;3522;50.856;7.278;2023-03-01T03:20:29;-1.00;99.90
6964;DHT22;3522;50.856;7.278;2023-03-01T03:22:57;-1.00;99.90
6964;DHT22;3522;50.856;7.278;2023-03-01T03:25:24;-1.00;99.90
6964;DHT22;3522;50.856;7.278;2023-03-01T03:27:52;-1.00;99.90
6964;DHT22;3522;50.856;7.278;2023-03-01T06:12:35;-1.40;99.90
6964;DHT22;3522;50.856;7.278;2023-03-01T06:15:03;-1.40;99.90
6964;DHT22;3522;50.856;7.278;2023-03-01T06:17:30;-1.40;99.90
6964;DHT22;3522;50.856;7.278;2023-03-01T06:19:57;-1.50;99.90
6964;DHT22;3522;50.856;7.278;2023-03-01T06:22:23;-1.50;99.90
6964;DHT22;3522;50.856;7.278;2023-03-01T06:24:50;-1.50;99.90
6964;DHT22;3522;50.856;7.278;2023-03-01T06:27:16;-1.50;99.90
6964;DHT22;3522;50.856;7.278;2023-03-01T06:29:44;-1.50;99.90
6964;DHT22;3522;50.856;7.278;2023-03-01T06:32:11;-1.40;99.90
6964;DHT22;3522;50.856;7.278;2023-03-01T06:34:37;-1.40;99.90
6964;DHT22;3522;50.856;7.278;2023-03-01T06:37:04;-1.50;99.90
6964;DHT22;3522;50.856;7.278;2023-03-01T06:39:32;-1.50;99.90
6964;DHT22;3522;50.856;7.278;2023-03-01T06:41:59;-1.50;99.90
6964;DHT22;3522;50.856;7.278;2023-03-01T06:44:26;-1.50;99.90
6964;DHT22;3522;50.856;7.278;2023-03-01T06:46:54;-1.40;99.90
6964;DHT22;3522;50.856;7.278;2023-03-01T06:49:20;-1.40;99.90
6964;DHT22;3522;50.856;7.278;2023-03-01T06:51:47;-1.40;99.90
6964;DHT22;3522;50.856;7.278;2023-03-01T06:54:13;-1.30;99.90
6964;DHT22;3522;50.856;7.278;2023-03-01T06:56:40;-1.30;99.90
6964;DHT22;3522;50.856;7.278;2023-03-01T06:59:07;-1.30;99.90
6964;DHT22;3522;50.856;7.278;2023-03-01T07:01:33;-1.30;99.90
6964;DHT22;3522;50.856;7.278;2023-03-01T07:04:01;-1.30;99.90
6964;DHT22;3522;50.856;7.278;2023-03-01T07:06:28;-1.30;99.90
6964;DHT22;3522;50.856;7.278;2023-03-01T07:08:54;-1.30;99.90
6964;DHT22;3522;50.856;7.278;2023-03-01T07:11:21;-1.20;99.90
6964;DHT22;3522;50.856;7.278;2023-03-01T07:13:48;-1.20;99.90
6964;DHT22;3522;50.856;7.278;2023-03-01T07:16:14;-1.00;99.90
6964;DHT22;3522;50.856;7.278;2023-03-01T07:18:41;-0.90;99.90
6964;DHT22;3522;50.856;7.278;2023-03-01T07:21:09;-0.80;99.90
6964;DHT22;3522;50.856;7.278;2023-03-01T07:23:38;-0.70;99.90
6964;DHT22;3522;50.856;7.278;2023-03-01T07:26:05;-0.50;99.90
6964;DHT22;3522;50.856;7.278;2023-03-01T07:28:31;-0.30;99.90
6964;DHT22;3522;50.856;7.278;2023-03-01T07:31:01;-0.10;99.90
6964;DHT22;3522;50.856;7.278;2023-03-01T07:33:28;0.10;99.90
6964;DHT22;3522;50.856;7.278;2023-03-01T07:35:57;0.20;99.90
6964;DHT22;3522;50.856;7.278;2023-03-01T07:38:25;0.30;99.90
6964;DHT22;3522;50.856;7.278;2023-03-01T07:40:52;0.40;99.90
6964;DHT22;3522;50.856;7.278;2023-03-01T07:43:19;0.50;99.90
6964;DHT22;3522;50.856;7.278;2023-03-01T07:45:45;0.60;99.90
6964;DHT22;3522;50.856;7.278;2023-03-01T07:48:12;0.70;99.90
6964;DHT22;3522;50.856;7.278;2023-03-01T07:50:38;0.70;99.90
6964;DHT22;3522;50.856;7.278;2023-03-01T07:53:05;0.60;99.90
6964;DHT22;3522;50.856;7.278;2023-03-01T07:55:33;0.50;99.90
6964;DHT22;3522;50.856;7.278;2023-03-01T07:57:59;0.50;99.90
6964;DHT22;3522;50.856;7.278;2023-03-01T08:00:26;0.50;99.90
6964;DHT22;3522;50.856;7.278;2023-03-01T08:02:52;0.40;99.90
6964;DHT22;3522;50.856;7.278;2023-03-01T08:05:19;0.40;99.90
6964;DHT22;3522;50.856;7.278;2023-03-01T08:07:47;0.50;99.90
6964;DHT22;3522;50.856;7.278;2023-03-01T08:10:14;0.50;99.90
6964;DHT22;3522;50.856;7.278;2023-03-01T08:12:41;0.60;99.90
6964;DHT22;3522;50.856;7.278;2023-03-01T08:15:08;0.70;99.90
6964;DHT22;3522;50.856;7.278;2023-03-01T08:17:35;0.90;99.90
6964;DHT22;3522;50.856;7.278;2023-03-01T08:20:02;1.00;99.90
6964;DHT22;3522;50.856;7.278;2023-03-01T08:22:31;1.00;99.90
6964;DHT22;3522;50.856;7.278;2023-03-01T08:24:57;1.10;99.90
6964;DHT22;3522;50.856;7.278;2023-03-01T08:27:24;1.20;99.90
6964;DHT22;3522;50.856;7.278;2023-03-01T08:29:52;1.40;99.90
6964;DHT22;3522;50.856;7.278;2023-03-01T08:32:18;1.50;99.90
6964;DHT22;3522;50.856;7.278;2023-03-01T08:34:46;1.60;99.90
6964;DHT22;3522;50.856;7.278;2023-03-01T08:37:12;1.90;99.90
6964;DHT22;3522;50.856;7.278;2023-03-01T08:39:39;2.00;99.90
6964;DHT22;3522;50.856;7.278;2023-03-01T08:42:05;2.30;99.90
6964;DHT22;3522;50.856;7.278;2023-03-01T08:44:32;2.30;99.90
6964;DHT22;3522;50.856;7.278;2023-03-01T08:47:00;2.50;99.90
6964;DHT22;3522;50.856;7.278;2023-03-01T08:49:27;2.60;99.90
6964;DHT22;3522;50.856;7.278;2023-03-01T08:51:54;2.80;99.90
6964;DHT22;3522;50.856;7.278;2023-03-01T08:54:21;2.90;99.90
6964;DHT22;3522;50.856;7.278;2023-03-01T08:56:48;3.10;99.90
6964;DHT22;3522;50.856;7.278;2023-03-01T08:59:15;3.10;99.90
6964;DHT22;3522;50.856;7.278;2023-03-01T09:01:42;3.20;99.90
6964;DHT22;3522;50.856;7.278;2023-03-01T09:04:10;3.20;99.90
6964;DHT22;3522;50.856;7.278;2023-03-01T09:06:37;3.40;99.90
6964;DHT22;3522;50.856;7.278;2023-03-01T09:09:04;3.50;99.90
6964;DHT22;3522;50.856;7.278;2023-03-01T09:11:31;3.50;99.90
6964;DHT22;3522;50.856;7.278;2023-03-01T09:13:58;3.60;99.90
6964;DHT22;3522;50.856;7.278;2023-03-01T09:16:24;3.90;99.90
6964;DHT22;3522;50.856;7.278;2023-03-01T09:18:51;4.10;99.90
6964;DHT22;3522;50.856;7.278;2023-03-01T09:21:20;4.30;99.90
6964;DHT22;3522;50.856;7.278;2023-03-01T09:23:48;4.50;99.90
6964;DHT22;3522;50.856;7.278;2023-03-01T09:26:15;4.50;99.90
6964;DHT22;3522;50.856;7.278;2023-03-01T09:28:44;4.60;99.90
6964;DHT22;3522;50.856;7.278;2023-03-01T09:31:11;4.70;99.90
6964;DHT22;3522;50.856;7.278;2023-03-01T09:33:38;4.60;99.90
6964;DHT22;3522;50.856;7.278;2023-03-01T09:36:06;4.80;99.90
6964;DHT22;3522;50.856;7.278;2023-03-01T09:38:34;4.90;99.90
6964;DHT22;3522;50.856;7.278;2023-03-01T09:41:01;5.00;99.90
6964;DHT22;3522;50.856;7.278;2023-03-01T09:43:34;5.20;99.90
6964;DHT22;3522;50.856;7.278;2023-03-01T09:46:04;5.30;99.90
6964;DHT22;3522;50.856;7.278;2023-03-01T09:48:33;5.40;99.90
6964;DHT22;3522;50.856;7.278;2023-03-01T09:51:03;5.40;99.90
6964;DHT22;3522;50.856;7.278;2023-03-01T09:53:34;5.30;99.90
6964;DHT22;3522;50.856;7.278;2023-03-01T09:56:02;5.30;99.90
6964;DHT22;3522;50.856;7.278;2023-03-01T09:58:31;5.40;99.90
6964;DHT22;3522;50.856;7.278;2023-03-01T10:01:03;5.40;99.90
6964;DHT22;3522;50.856;7.278;2023-03-01T10:03:35;5.50;99.90
6964;DHT22;3522;50.856;7.278;2023-03-01T10:06:04;5.70;99.90
6964;DHT22;3522;50.856;7.278;2023-03-01T10:08:38;5.70;99.90
6964;DHT22;3522;50.856;7.278;2023-03-01T10:11:14;5.70;99.90
6964;DHT22;3522;50.856;7.278;2023-03-01T10:13:45;6.10;99.90
6964;DHT22;3522;50.856;7.278;2023-03-01T10:16:14;6.20;99.90
6964;DHT22;3522;50.856;7.278;2023-03-01T10:18:42;6.20;99.90
6964;DHT22;3522;50.856;7.278;2023-03-01T10:21:13;6.20;99.90
6964;DHT22;3522;50.856;7.278;2023-03-01T10:23:42;6.40;99.90
6964;DHT22;3522;50.856;7.278;2023-03-01T10:26:21;6.40;99.90
6964;DHT22;3522;50.856;7.278;2023-03-01T10:28:50;6.40;99.90
6964;DHT22;3522;50.856;7.278;2023-03-01T10:31:21;6.50;99.90
6964;DHT22;3522;50.856;7.278;2023-03-01T10:33:53;6.50;99.90
6964;DHT22;3522;50.856;7.278;2023-03-01T10:36:20;6.60;99.90
6964;DHT22;3522;50.856;7.278;2023-03-01T10:38:49;6.90;99.90
6964;DHT22;3522;50.856;7.278;2023-03-01T10:41:19;7.00;99.90
6964;DHT22;3522;50.856;7.278;2023-03-01T10:43:49;7.00;99.90
6964;DHT22;3522;50.856;7.278;2023-03-01T10:46:26;6.80;99.90
6964;DHT22;3522;50.856;7.278;2023-03-01T10:51:42;7.10;99.90
6964;DHT22;3522;50.856;7.278;2023-03-01T10:54:17;7.20;99.10
6964;DHT22;3522;50.856;7.278;2023-03-01T10:56:48;7.20;99.80
6964;DHT22;3522;50.856;7.278;2023-03-01T10:59:26;7.30;98.50
6964;DHT22;3522;50.856;7.278;2023-03-01T11:02:09;7.50;98.80
6964;DHT22;3522;50.856;7.278;2023-03-01T11:04:38;7.70;97.90
6964;DHT22;3522;50.856;7.278;2023-03-01T11:07:05;7.50;98.00
6964;DHT22;3522;50.856;7.278;2023-03-01T11:09:33;7.50;97.60
6964;DHT22;3522;50.856;7.278;2023-03-01T11:12:03;7.30;96.90
6964;DHT22;3522;50.856;7.278;2023-03-01T11:14:31;7.40;97.50
6964;DHT22;3522;50.856;7.278;2023-03-01T11:17:01;7.50;96.30
6964;DHT22;3522;50.856;7.278;2023-03-01T11:19:27;7.40;95.80
6964;DHT22;3522;50.856;7.278;2023-03-01T11:21:58;7.30;96.10
6964;DHT22;3522;50.856;7.278;2023-03-01T11:24:29;7.40;96.00
6964;DHT22;3522;50.856;7.278;2023-03-01T11:26:58;7.70;95.30
6964;DHT22;3522;50.856;7.278;2023-03-01T11:29:27;8.00;95.50
6964;DHT22;3522;50.856;7.278;2023-03-01T11:31:55;8.10;94.10
6964;DHT22;3522;50.856;7.278;2023-03-01T11:34:25;8.20;93.80
6964;DHT22;3522;50.856;7.278;2023-03-01T11:36:58;8.10;92.40
6964;DHT22;3522;50.856;7.278;2023-03-01T11:39:27;8.10;92.00
6964;DHT22;3522;50.856;7.278;2023-03-01T11:41:59;7.90;91.90
6964;DHT22;3522;50.856;7.278;2023-03-01T11:44:28;7.70;91.50
6964;DHT22;3522;50.856;7.278;2023-03-01T11:52:31;7.90;91.90
6964;DHT22;3522;50.856;7.278;2023-03-01T11:55:11;8.30;92.80
6964;DHT22;3522;50.856;7.278;2023-03-01T11:57:46;8.60;92.70
6964;DHT22;3522;50.856;7.278;2023-03-01T12:00:16;8.70;91.50
6964;DHT22;3522;50.856;7.278;2023-03-01T12:03:00;8.80;92.30
6964;DHT22;3522;50.856;7.278;2023-03-01T12:05:39;8.70;92.70
6964;DHT22;3522;50.856;7.278;2023-03-01T12:08:11;8.70;92.00
6964;DHT22;3522;50.856;7.278;2023-03-01T12:10:42;8.60;92.50
6964;DHT22;3522;50.856;7.278;2023-03-01T12:16:14;8.60;90.40
6964;DHT22;3522;50.856;7.278;2023-03-01T12:18:48;8.60;90.80
6964;DHT22;3522;50.856;7.278;2023-03-01T12:21:20;8.60;90.10
6964;DHT22;3522;50.856;7.278;2023-03-01T12:23:56;8.40;90.50
6964;DHT22;3522;50.856;7.278;2023-03-01T12:26:26;8.60;90.70
6964;DHT22;3522;50.856;7.278;2023-03-01T12:28:57;8.70;90.40
6964;DHT22;3522;50.856;7.278;2023-03-01T12:31:39;8.90;90.30
6964;DHT22;3522;50.856;7.278;2023-03-01T12:34:14;8.90;90.00
6964;DHT22;3522;50.856;7.278;2023-03-01T12:36:46;9.00;89.70
6964;DHT22;3522;50.856;7.278;2023-03-01T12:39:29;9.00;88.60
6964;DHT22;3522;50.856;7.278;2023-03-01T12:42:01;8.90;87.40
6964;DHT22;3522;50.856;7.278;2023-03-01T12:44:31;8.70;87.20
6964;DHT22;3522;50.856;7.278;2023-03-01T12:47:07;8.70;87.20
6964;DHT22;3522;50.856;7.278;2023-03-01T12:49:37;8.50;83.90
6964;DHT22;3522;50.856;7.278;2023-03-01T12:52:09;8.60;85.00
6964;DHT22;3522;50.856;7.278;2023-03-01T12:54:36;8.80;86.30
6964;DHT22;3522;50.856;7.278;2023-03-01T12:57:08;8.90;85.20
6964;DHT22;3522;50.856;7.278;2023-03-01T12:59:37;8.70;82.00
6964;DHT22;3522;50.856;7.278;2023-03-01T13:02:09;8.60;80.60
6964;DHT22;3522;50.856;7.278;2023-03-01T13:04:44;8.70;80.60
6964;DHT22;3522;50.856;7.278;2023-03-01T13:07:16;8.80;80.20
6964;DHT22;3522;50.856;7.278;2023-03-01T13:09:48;8.90;77.80
6964;DHT22;3522;50.856;7.278;2023-03-01T13:15:03;8.70;78.70
6964;DHT22;3522;50.856;7.278;2023-03-01T13:17:33;8.80;78.30
6964;DHT22;3522;50.856;7.278;2023-03-01T13:20:10;8.80;78.60
6964;DHT22;3522;50.856;7.278;2023-03-01T13:22:37;8.90;80.60
6964;DHT22;3522;50.856;7.278;2023-03-01T13:25:12;8.90;82.70
6964;DHT22;3522;50.856;7.278;2023-03-01T13:27:39;8.90;83.40
6964;DHT22;3522;50.856;7.278;2023-03-01T13:30:12;8.90;78.90
6964;DHT22;3522;50.856;7.278;2023-03-01T13:32:54;9.00;79.80
6964;DHT22;3522;50.856;7.278;2023-03-01T13:35:41;9.10;78.50
6964;DHT22;3522;50.856;7.278;2023-03-01T13:40:57;9.10;75.50
6964;DHT22;3522;50.856;7.278;2023-03-01T13:43:28;9.20;77.20
6964;DHT22;3522;50.856;7.278;2023-03-01T13:45:55;9.30;77.80
6964;DHT22;3522;50.856;7.278;2023-03-01T13:48:24;9.40;76.00
6964;DHT22;3522;50.856;7.278;2023-03-01T13:50:53;9.30;76.50
6964;DHT22;3522;50.856;7.278;2023-03-01T13:53:21;9.50;76.50
6964;DHT22;3522;50.856;7.278;2023-03-01T13:55:50;9.50;75.50
6964;DHT22;3522;50.856;7.278;2023-03-01T13:58:21;9.50;76.30
6964;DHT22;3522;50.856;7.278;2023-03-01T14:00:54;9.50;73.50
6964;DHT22;3522;50.856;7.278;2023-03-01T14:03:21;9.50;75.70
6964;DHT22;3522;50.856;7.278;2023-03-01T14:05:58;9.50;73.60
6964;DHT22;3522;50.856;7.278;2023-03-01T14:08:26;9.50;76.20
6964;DHT22;3522;50.856;7.278;2023-03-01T14:10:56;9.50;75.40
6964;DHT22;3522;50.856;7.278;2023-03-01T14:13:31;9.50;73.70
6964;DHT22;3522;50.856;7.278;2023-03-01T14:16:04;9.40;71.50
6964;DHT22;3522;50.856;7.278;2023-03-01T14:18:36;9.40;72.50
6964;DHT22;3522;50.856;7.278;2023-03-01T14:21:08;9.30;72.60
6964;DHT22;3522;50.856;7.278;2023-03-01T14:23:35;9.40;72.80
6964;DHT22;3522;50.856;7.278;2023-03-01T14:26:04;9.40;73.60
6964;DHT22;3522;50.856;7.278;2023-03-01T14:28:31;9.30;72.70
6964;DHT22;3522;50.856;7.278;2023-03-01T14:31:03;9.30;73.00
6964;DHT22;3522;50.856;7.278;2023-03-01T14:33:30;9.20;73.80
6964;DHT22;3522;50.856;7.278;2023-03-01T14:35:59;9.20;71.80
6964;DHT22;3522;50.856;7.278;2023-03-01T14:38:31;9.10;71.80
6964;DHT22;3522;50.856;7.278;2023-03-01T14:41:00;9.20;70.90
6964;DHT22;3522;50.856;7.278;2023-03-01T14:43:28;9.20;70.60
6964;DHT22;3522;50.856;7.278;2023-03-01T14:45:55;9.20;70.50
6964;DHT22;3522;50.856;7.278;2023-03-01T14:48:22;9.30;70.00
6964;DHT22;3522;50.856;7.278;2023-03-01T14:50:49;9.30;68.90
6964;DHT22;3522;50.856;7.278;2023-03-01T14:53:16;9.20;68.30
6964;DHT22;3522;50.856;7.278;2023-03-01T14:55:45;9.10;69.40
6964;DHT22;3522;50.856;7.278;2023-03-01T14:58:13;9.20;68.60
6964;DHT22;3522;50.856;7.278;2023-03-01T15:00:42;9.20;67.30
6964;DHT22;3522;50.856;7.278;2023-03-01T15:03:13;9.10;66.20
6964;DHT22;3522;50.856;7.278;2023-03-01T15:05:41;9.10;68.10
6964;DHT22;3522;50.856;7.278;2023-03-01T15:08:11;9.10;66.70
6964;DHT22;3522;50.856;7.278;2023-03-01T15:10:54;9.10;69.80
6964;DHT22;3522;50.856;7.278;2023-03-01T15:13:23;9.10;75.50
6964;DHT22;3522;50.856;7.278;2023-03-01T15:15:50;9.10;77.00
6964;DHT22;3522;50.856;7.278;2023-03-01T15:18:18;9.00;77.40
6964;DHT22;3522;50.856;7.278;2023-03-01T15:20:45;9.00;78.20
6964;DHT22;3522;50.856;7.278;2023-03-01T15:23:17;8.90;78.90
6964;DHT22;3522;50.856;7.278;2023-03-01T15:25:44;8.80;78.40
6964;DHT22;3522;50.856;7.278;2023-03-01T15:28:12;8.80;79.30
6964;DHT22;3522;50.856;7.278;2023-03-01T15:30:45;8.70;80.00
6964;DHT22;3522;50.856;7.278;2023-03-01T15:33:29;8.70;81.40
6964;DHT22;3522;50.856;7.278;2023-03-01T15:35:56;8.70;81.30
6964;DHT22;3522;50.856;7.278;2023-03-01T15:38:31;8.60;81.70
6964;DHT22;3522;50.856;7.278;2023-03-01T15:40:58;8.50;82.90
6964;DHT22;3522;50.856;7.278;2023-03-01T15:43:38;8.40;82.90
6964;DHT22;3522;50.856;7.278;2023-03-01T15:46:11;8.40;82.30
6964;DHT22;3522;50.856;7.278;2023-03-01T15:48:43;8.30;83.10
6964;DHT22;3522;50.856;7.278;2023-03-01T15:51:10;8.30;84.30
6964;DHT22;3522;50.856;7.278;2023-03-01T15:53:38;8.20;84.40
6964;DHT22;3522;50.856;7.278;2023-03-01T15:56:05;8.20;85.40
6964;DHT22;3522;50.856;7.278;2023-03-01T15:58:32;8.10;84.80
6964;DHT22;3522;50.856;7.278;2023-03-01T16:00:59;8.10;85.70
6964;DHT22;3522;50.856;7.278;2023-03-01T16:03:27;8.10;86.60
6964;DHT22;3522;50.856;7.278;2023-03-01T16:05:53;8.00;84.70
6964;DHT22;3522;50.856;7.278;2023-03-01T16:08:20;8.00;86.00
6964;DHT22;3522;50.856;7.278;2023-03-01T16:10:47;7.90;85.50
6964;DHT22;3522;50.856;7.278;2023-03-01T16:13:15;7.90;86.20
6964;DHT22;3522;50.856;7.278;2023-03-01T16:15:42;7.90;89.50
6964;DHT22;3522;50.856;7.278;2023-03-01T16:18:09;7.80;88.60
6964;DHT22;3522;50.856;7.278;2023-03-01T16:20:38;7.60;88.80
6964;DHT22;3522;50.856;7.278;2023-03-01T16:23:08;7.50;89.70
6964;DHT22;3522;50.856;7.278;2023-03-01T16:25:36;7.40;90.30
6964;DHT22;3522;50.856;7.278;2023-03-01T16:28:03;7.40;90.00
6964;DHT22;3522;50.856;7.278;2023-03-01T16:30:34;7.30;90.10
6964;DHT22;3522;50.856;7.278;2023-03-01T16:33:01;7.30;90.40
6964;DHT22;3522;50.856;7.278;2023-03-01T16:35:27;7.20;90.30
6964;DHT22;3522;50.856;7.278;2023-03-01T16:37:55;7.20;90.70
6964;DHT22;3522;50.856;7.278;2023-03-01T16:40:22;7.10;90.70
6964;DHT22;3522;50.856;7.278;2023-03-01T16:42:49;7.10;90.70
6964;DHT22;3522;50.856;7.278;2023-03-01T16:45:16;7.00;91.00
6964;DHT22;3522;50.856;7.278;2023-03-01T16:47:43;7.00;90.60
6964;DHT22;3522;50.856;7.278;2023-03-01T16:50:10;7.00;90.50
6964;DHT22;3522;50.856;7.278;2023-03-01T16:52:37;6.90;89.90
6964;DHT22;3522;50.856;7.278;2023-03-01T16:55:06;6.90;89.10
6964;DHT22;3522;50.856;7.278;2023-03-01T16:57:35;6.90;87.90
6964;DHT22;3522;50.856;7.278;2023-03-01T17:00:02;6.80;87.40
6964;DHT22;3522;50.856;7.278;2023-03-01T17:02:33;6.80;87.00
6964;DHT22;3522;50.856;7.278;2023-03-01T17:05:00;6.60;87.20
6964;DHT22;3522;50.856;7.278;2023-03-01T17:07:27;6.60;88.20
6964;DHT22;3522;50.856;7.278;2023-03-01T17:09:54;6.50;87.90
6964;DHT22;3522;50.856;7.278;2023-03-01T17:12:22;6.40;87.70
6964;DHT22;3522;50.856;7.278;2023-03-01T17:14:48;6.40;87.50
6964;DHT22;3522;50.856;7.278;2023-03-01T17:17:15;6.30;87.50
6964;DHT22;3522;50.856;7.278;2023-03-01T17:19:42;6.30;88.00
6964;DHT22;3522;50.856;7.278;2023-03-01T17:22:09;6.20;88.00
6964;DHT22;3522;50.856;7.278;2023-03-01T17:24:36;6.20;88.10
6964;DHT22;3522;50.856;7.278;2023-03-01T17:27:04;6.10;88.50
6964;DHT22;3522;50.856;7.278;2023-03-01T17:29:32;6.00;88.20
6964;DHT22;3522;50.856;7.278;2023-03-01T17:31:58;6.00;88.40
6964;DHT22;3522;50.856;7.278;2023-03-01T17:34:25;5.90;88.80
6964;DHT22;3522;50.856;7.278;2023-03-01T17:36:52;5.90;89.70
6964;DHT22;3522;50.856;7.278;2023-03-01T17:39:19;5.90;89.50
6964;DHT22;3522;50.856;7.278;2023-03-01T17:41:50;5.80;89.60
6964;DHT22;3522;50.856;7.278;2023-03-01T17:44:16;5.80;89.90
6964;DHT22;3522;50.856;7.278;2023-03-01T17:46:44;5.70;90.30
6964;DHT22;3522;50.856;7.278;2023-03-01T17:49:11;5.60;90.70
6964;DHT22;3522;50.856;7.278;2023-03-01T17:51:37;5.50;90.80
6964;DHT22;3522;50.856;7.278;2023-03-01T17:54:04;5.40;90.80
6964;DHT22;3522;50.856;7.278;2023-03-01T17:56:31;5.40;91.10
6964;DHT22;3522;50.856;7.278;2023-03-01T17:58:58;5.30;91.30
6964;DHT22;3522;50.856;7.278;2023-03-01T18:01:24;5.20;91.10
6964;DHT22;3522;50.856;7.278;2023-03-01T18:03:52;5.20;91.50
6964;DHT22;3522;50.856;7.278;2023-03-01T18:06:20;5.20;91.50
6964;DHT22;3522;50.856;7.278;2023-03-01T18:08:47;5.10;91.60
6964;DHT22;3522;50.856;7.278;2023-03-01T18:11:15;5.00;91.60
6964;DHT22;3522;50.856;7.278;2023-03-01T18:13:41;5.00;91.80
6964;DHT22;3522;50.856;7.278;2023-03-01T18:16:09;4.90;91.80
6964;DHT22;3522;50.856;7.278;2023-03-01T18:18:36;4.90;91.40
6964;DHT22;3522;50.856;7.278;2023-03-01T18:21:04;4.90;91.70
6964;DHT22;3522;50.856;7.278;2023-03-01T18:23:31;4.80;92.40
6964;DHT22;3522;50.856;7.278;2023-03-01T18:25:59;4.80;92.10
6964;DHT22;3522;50.856;7.278;2023-03-01T18:28:26;4.70;92.30
6964;DHT22;3522;50.856;7.278;2023-03-01T18:30:54;4.60;92.20
6964;DHT22;3522;50.856;7.278;2023-03-01T18:33:21;4.60;92.30
6964;DHT22;3522;50.856;7.278;2023-03-01T18:35:48;4.60;92.30
6964;DHT22;3522;50.856;7.278;2023-03-01T18:38:16;4.50;92.40
6964;DHT22;3522;50.856;7.278;2023-03-01T18:40:42;4.50;92.60
6964;DHT22;3522;50.856;7.278;2023-03-01T18:43:09;4.40;92.60
6964;DHT22;3522;50.856;7.278;2023-03-01T18:45:35;4.40;92.40
6964;DHT22;3522;50.856;7.278;2023-03-01T18:48:02;4.40;92.50
6964;DHT22;3522;50.856;7.278;2023-03-01T18:50:29;4.30;92.50
6964;DHT22;3522;50.856;7.278;2023-03-01T18:52:56;4.30;92.90
6964;DHT22;3522;50.856;7.278;2023-03-01T18:55:24;4.30;92.60
6964;DHT22;3522;50.856;7.278;2023-03-01T18:57:51;4.20;92.70
6964;DHT22;3522;50.856;7.278;2023-03-01T19:00:18;4.20;92.70
6964;DHT22;3522;50.856;7.278;2023-03-01T19:02:45;4.10;92.90
6964;DHT22;3522;50.856;7.278;2023-03-01T19:05:12;4.10;93.00
6964;DHT22;3522;50.856;7.278;2023-03-01T19:07:39;4.10;93.20
6964;DHT22;3522;50.856;7.278;2023-03-01T19:10:06;4.10;93.20
6964;DHT22;3522;50.856;7.278;2023-03-01T19:12:34;4.00;93.10
6964;DHT22;3522;50.856;7.278;2023-03-01T19:15:01;4.00;93.30
6964;DHT22;3522;50.856;7.278;2023-03-01T19:17:28;4.00;93.80
6964;DHT22;3522;50.856;7.278;2023-03-01T19:19:55;3.90;93.80
6964;DHT22;3522;50.856;7.278;2023-03-01T19:22:22;3.90;93.40